<?xml version="1.0" encoding="UTF-8" standalone="no" ?>
<gpx xmlns="http://www.topografix.com/GPX/1/1" xmlns:xsi="http://www.w3.org/2001/XMLSchema-instance" xsi:schemaLocation="http://www.topografix.com/GPX/1/1 http://www.topografix.com/GPX/1/1/gpx.xsd" version="1.1" creator="VisuGPX - https://www.visugpx.com">
  <metadata>
    <name>Cirque d'Archiane</name>
    <desc><![CDATA[Rando en dessous des falaises du Glandasses. Observation des vautours. Sentier découverte, mais assez difficile (dénivelé)]]></desc>
  </metadata>
  <trk>
    <name><![CDATA[Treschenu-Creyers Autre]]></name>
    <trkseg>
      <trkpt lat="44.74501" lon="5.50715">
        <ele>763</ele>
        <time>2018-08-14T08:08:10.000Z</time>
      </trkpt>
      <trkpt lat="44.74498" lon="5.50712">
        <ele>762.20001220703</ele>
        <time>2018-08-14T08:08:14.000Z</time>
      </trkpt>
      <trkpt lat="44.74498" lon="5.50695">
        <ele>760.59997558594</ele>
        <time>2018-08-14T08:08:28.000Z</time>
      </trkpt>
      <trkpt lat="44.7452" lon="5.50661">
        <ele>759.40002441406</ele>
        <time>2018-08-14T08:09:10.000Z</time>
      </trkpt>
      <trkpt lat="44.74526" lon="5.50658">
        <ele>759.59997558594</ele>
        <time>2018-08-14T08:09:16.000Z</time>
      </trkpt>
      <trkpt lat="44.74549" lon="5.50649">
        <ele>760.79998779297</ele>
        <time>2018-08-14T08:09:48.000Z</time>
      </trkpt>
      <trkpt lat="44.74551" lon="5.5065">
        <ele>761.20001220703</ele>
        <time>2018-08-14T08:09:50.000Z</time>
      </trkpt>
      <trkpt lat="44.74571" lon="5.50672">
        <ele>767.20001220703</ele>
        <time>2018-08-14T08:10:43.000Z</time>
      </trkpt>
      <trkpt lat="44.746" lon="5.50702">
        <ele>775.40002441406</ele>
        <time>2018-08-14T08:11:31.000Z</time>
      </trkpt>
      <trkpt lat="44.74632" lon="5.50691">
        <ele>774</ele>
        <time>2018-08-14T08:12:51.000Z</time>
      </trkpt>
      <trkpt lat="44.74639" lon="5.50687">
        <ele>773.40002441406</ele>
        <time>2018-08-14T08:12:58.000Z</time>
      </trkpt>
      <trkpt lat="44.74641" lon="5.50627">
        <ele>763</ele>
        <time>2018-08-14T08:14:00.000Z</time>
      </trkpt>
      <trkpt lat="44.74639" lon="5.50619">
        <ele>762</ele>
        <time>2018-08-14T08:14:07.000Z</time>
      </trkpt>
      <trkpt lat="44.74623" lon="5.5056">
        <ele>754.20001220703</ele>
        <time>2018-08-14T08:15:01.000Z</time>
      </trkpt>
      <trkpt lat="44.74631" lon="5.50543">
        <ele>756.79998779297</ele>
        <time>2018-08-14T08:16:48.000Z</time>
      </trkpt>
      <trkpt lat="44.74639" lon="5.50527">
        <ele>760.79998779297</ele>
        <time>2018-08-14T08:17:03.000Z</time>
      </trkpt>
      <trkpt lat="44.74632" lon="5.50503">
        <ele>760.79998779297</ele>
        <time>2018-08-14T08:17:52.000Z</time>
      </trkpt>
      <trkpt lat="44.74627" lon="5.50501">
        <ele>759.40002441406</ele>
        <time>2018-08-14T08:17:57.000Z</time>
      </trkpt>
      <trkpt lat="44.74612" lon="5.50454">
        <ele>761.59997558594</ele>
        <time>2018-08-14T08:18:55.000Z</time>
      </trkpt>
      <trkpt lat="44.7464" lon="5.50418">
        <ele>765.79998779297</ele>
        <time>2018-08-14T08:20:05.000Z</time>
      </trkpt>
      <trkpt lat="44.74645" lon="5.504">
        <ele>767</ele>
        <time>2018-08-14T08:21:29.000Z</time>
      </trkpt>
      <trkpt lat="44.74646" lon="5.50396">
        <ele>767.40002441406</ele>
        <time>2018-08-14T08:21:32.000Z</time>
      </trkpt>
      <trkpt lat="44.74666" lon="5.50339">
        <ele>772.20001220703</ele>
        <time>2018-08-14T08:22:30.000Z</time>
      </trkpt>
      <trkpt lat="44.7468" lon="5.50311">
        <ele>771.59997558594</ele>
        <time>2018-08-14T08:25:09.000Z</time>
      </trkpt>
      <trkpt lat="44.74684" lon="5.50304">
        <ele>771.59997558594</ele>
        <time>2018-08-14T08:25:16.000Z</time>
      </trkpt>
      <trkpt lat="44.74699" lon="5.50278">
        <ele>773</ele>
        <time>2018-08-14T08:25:48.000Z</time>
      </trkpt>
      <trkpt lat="44.74715" lon="5.50221">
        <ele>774</ele>
        <time>2018-08-14T08:27:23.000Z</time>
      </trkpt>
      <trkpt lat="44.74722" lon="5.50159">
        <ele>778.59997558594</ele>
        <time>2018-08-14T08:28:54.000Z</time>
      </trkpt>
      <trkpt lat="44.74734" lon="5.50119">
        <ele>781.79998779297</ele>
        <time>2018-08-14T08:31:19.000Z</time>
      </trkpt>
      <trkpt lat="44.74741" lon="5.5008">
        <ele>785.20001220703</ele>
        <time>2018-08-14T08:33:15.000Z</time>
      </trkpt>
      <trkpt lat="44.74753" lon="5.50027">
        <ele>791.20001220703</ele>
        <time>2018-08-14T08:35:35.000Z</time>
      </trkpt>
      <trkpt lat="44.74757" lon="5.49978">
        <ele>793.20001220703</ele>
        <time>2018-08-14T08:37:48.000Z</time>
      </trkpt>
      <trkpt lat="44.7476" lon="5.49919">
        <ele>799</ele>
        <time>2018-08-14T08:39:18.000Z</time>
      </trkpt>
      <trkpt lat="44.74769" lon="5.49884">
        <ele>799.59997558594</ele>
        <time>2018-08-14T08:42:06.000Z</time>
      </trkpt>
      <trkpt lat="44.7477" lon="5.49845">
        <ele>806.40002441406</ele>
        <time>2018-08-14T08:44:17.000Z</time>
      </trkpt>
      <trkpt lat="44.7478" lon="5.498">
        <ele>809</ele>
        <time>2018-08-14T08:45:36.000Z</time>
      </trkpt>
      <trkpt lat="44.74813" lon="5.49758">
        <ele>823.59997558594</ele>
        <time>2018-08-14T08:46:43.000Z</time>
      </trkpt>
      <trkpt lat="44.74835" lon="5.49705">
        <ele>831.20001220703</ele>
        <time>2018-08-14T08:47:44.000Z</time>
      </trkpt>
      <trkpt lat="44.74872" lon="5.49677">
        <ele>834</ele>
        <time>2018-08-14T08:48:59.000Z</time>
      </trkpt>
      <trkpt lat="44.74908" lon="5.49643">
        <ele>844</ele>
        <time>2018-08-14T08:50:07.000Z</time>
      </trkpt>
      <trkpt lat="44.74925" lon="5.49587">
        <ele>853.59997558594</ele>
        <time>2018-08-14T08:51:27.000Z</time>
      </trkpt>
      <trkpt lat="44.74927" lon="5.49534">
        <ele>859.40002441406</ele>
        <time>2018-08-14T08:52:53.000Z</time>
      </trkpt>
      <trkpt lat="44.7495" lon="5.49517">
        <ele>858.79998779297</ele>
        <time>2018-08-14T08:55:21.000Z</time>
      </trkpt>
      <trkpt lat="44.74984" lon="5.49488">
        <ele>872</ele>
        <time>2018-08-14T08:57:16.000Z</time>
      </trkpt>
      <trkpt lat="44.75018" lon="5.49447">
        <ele>883.40002441406</ele>
        <time>2018-08-14T08:58:55.000Z</time>
      </trkpt>
      <trkpt lat="44.75058" lon="5.49423">
        <ele>892.59997558594</ele>
        <time>2018-08-14T09:00:30.000Z</time>
      </trkpt>
      <trkpt lat="44.75097" lon="5.49393">
        <ele>904.59997558594</ele>
        <time>2018-08-14T09:01:42.000Z</time>
      </trkpt>
      <trkpt lat="44.75125" lon="5.49364">
        <ele>910.59997558594</ele>
        <time>2018-08-14T09:04:09.000Z</time>
      </trkpt>
      <trkpt lat="44.75166" lon="5.4935">
        <ele>928.40002441406</ele>
        <time>2018-08-14T09:06:02.000Z</time>
      </trkpt>
      <trkpt lat="44.75175" lon="5.49358">
        <ele>933.40002441406</ele>
        <time>2018-08-14T09:07:19.000Z</time>
      </trkpt>
      <trkpt lat="44.75176" lon="5.49357">
        <ele>933.79998779297</ele>
        <time>2018-08-14T09:07:20.000Z</time>
      </trkpt>
      <trkpt lat="44.75212" lon="5.49359">
        <ele>951.20001220703</ele>
        <time>2018-08-14T09:09:21.000Z</time>
      </trkpt>
      <trkpt lat="44.75217" lon="5.49317">
        <ele>946.79998779297</ele>
        <time>2018-08-14T09:11:13.000Z</time>
      </trkpt>
      <trkpt lat="44.75239" lon="5.49284">
        <ele>953.40002441406</ele>
        <time>2018-08-14T09:13:09.000Z</time>
      </trkpt>
      <trkpt lat="44.75272" lon="5.49257">
        <ele>969</ele>
        <time>2018-08-14T09:15:03.000Z</time>
      </trkpt>
      <trkpt lat="44.75294" lon="5.49243">
        <ele>979.59997558594</ele>
        <time>2018-08-14T09:17:28.000Z</time>
      </trkpt>
      <trkpt lat="44.75296" lon="5.49241">
        <ele>980.59997558594</ele>
        <time>2018-08-14T09:18:05.000Z</time>
      </trkpt>
      <trkpt lat="44.75307" lon="5.49267">
        <ele>990.40002441406</ele>
        <time>2018-08-14T09:30:14.000Z</time>
      </trkpt>
      <trkpt lat="44.75304" lon="5.49301">
        <ele>992.20001220703</ele>
        <time>2018-08-14T09:31:48.000Z</time>
      </trkpt>
      <trkpt lat="44.75315" lon="5.49351">
        <ele>1008.5999755859</ele>
        <time>2018-08-14T09:32:49.000Z</time>
      </trkpt>
      <trkpt lat="44.75297" lon="5.49392">
        <ele>1010.799987793</ele>
        <time>2018-08-14T09:34:00.000Z</time>
      </trkpt>
      <trkpt lat="44.75307" lon="5.4943">
        <ele>1023.799987793</ele>
        <time>2018-08-14T09:35:45.000Z</time>
      </trkpt>
      <trkpt lat="44.75276" lon="5.49471">
        <ele>1014.4000244141</ele>
        <time>2018-08-14T09:36:56.000Z</time>
      </trkpt>
      <trkpt lat="44.75277" lon="5.4951">
        <ele>1021.200012207</ele>
        <time>2018-08-14T09:37:43.000Z</time>
      </trkpt>
      <trkpt lat="44.7527" lon="5.49567">
        <ele>1024.5999755859</ele>
        <time>2018-08-14T09:39:07.000Z</time>
      </trkpt>
      <trkpt lat="44.75267" lon="5.49618">
        <ele>1026.5999755859</ele>
        <time>2018-08-14T09:40:34.000Z</time>
      </trkpt>
      <trkpt lat="44.75268" lon="5.49627">
        <ele>1027.5999755859</ele>
        <time>2018-08-14T09:40:41.000Z</time>
      </trkpt>
      <trkpt lat="44.7528" lon="5.49687">
        <ele>1034.4000244141</ele>
        <time>2018-08-14T09:41:59.000Z</time>
      </trkpt>
      <trkpt lat="44.75283" lon="5.49713">
        <ele>1036</ele>
        <time>2018-08-14T09:42:21.000Z</time>
      </trkpt>
      <trkpt lat="44.75281" lon="5.49754">
        <ele>1037</ele>
        <time>2018-08-14T09:43:15.000Z</time>
      </trkpt>
      <trkpt lat="44.75282" lon="5.4977">
        <ele>1038.8000488281</ele>
        <time>2018-08-14T09:43:30.000Z</time>
      </trkpt>
      <trkpt lat="44.75282" lon="5.49833">
        <ele>1048.1999511719</ele>
        <time>2018-08-14T09:44:27.000Z</time>
      </trkpt>
      <trkpt lat="44.75268" lon="5.4989">
        <ele>1054.1999511719</ele>
        <time>2018-08-14T09:45:44.000Z</time>
      </trkpt>
      <trkpt lat="44.7526" lon="5.49914">
        <ele>1052.5999755859</ele>
        <time>2018-08-14T09:46:27.000Z</time>
      </trkpt>
      <trkpt lat="44.75253" lon="5.49926">
        <ele>1050.8000488281</ele>
        <time>2018-08-14T09:46:39.000Z</time>
      </trkpt>
      <trkpt lat="44.75223" lon="5.49973">
        <ele>1047.8000488281</ele>
        <time>2018-08-14T09:47:32.000Z</time>
      </trkpt>
      <trkpt lat="44.75225" lon="5.50002">
        <ele>1043.4000244141</ele>
        <time>2018-08-14T09:47:59.000Z</time>
      </trkpt>
      <trkpt lat="44.75229" lon="5.50005">
        <ele>1043.1999511719</ele>
        <time>2018-08-14T09:48:03.000Z</time>
      </trkpt>
      <trkpt lat="44.75237" lon="5.50005">
        <ele>1043.5999755859</ele>
        <time>2018-08-14T09:48:14.000Z</time>
      </trkpt>
      <trkpt lat="44.75239" lon="5.49999">
        <ele>1044.4000244141</ele>
        <time>2018-08-14T09:48:21.000Z</time>
      </trkpt>
      <trkpt lat="44.75245" lon="5.49984">
        <ele>1050.4000244141</ele>
        <time>2018-08-14T09:50:24.000Z</time>
      </trkpt>
      <trkpt lat="44.7525" lon="5.49984">
        <ele>1051.5999755859</ele>
        <time>2018-08-14T09:50:29.000Z</time>
      </trkpt>
      <trkpt lat="44.75266" lon="5.49976">
        <ele>1058</ele>
        <time>2018-08-14T09:50:47.000Z</time>
      </trkpt>
      <trkpt lat="44.75282" lon="5.4997">
        <ele>1063.8000488281</ele>
        <time>2018-08-14T09:53:04.000Z</time>
      </trkpt>
      <trkpt lat="44.75273" lon="5.49965">
        <ele>1062.1999511719</ele>
        <time>2018-08-14T09:56:18.000Z</time>
      </trkpt>
      <trkpt lat="44.75269" lon="5.49957">
        <ele>1059.4000244141</ele>
        <time>2018-08-14T10:04:47.000Z</time>
      </trkpt>
      <trkpt lat="44.75266" lon="5.49951">
        <ele>1057.8000488281</ele>
        <time>2018-08-14T10:04:51.000Z</time>
      </trkpt>
      <trkpt lat="44.75309" lon="5.49967">
        <ele>1070.5999755859</ele>
        <time>2018-08-14T10:06:22.000Z</time>
      </trkpt>
      <trkpt lat="44.7532" lon="5.49969">
        <ele>1072.4000244141</ele>
        <time>2018-08-14T10:07:00.000Z</time>
      </trkpt>
      <trkpt lat="44.75339" lon="5.49978">
        <ele>1073.8000488281</ele>
        <time>2018-08-14T10:08:05.000Z</time>
      </trkpt>
      <trkpt lat="44.7536" lon="5.49993">
        <ele>1074.4000244141</ele>
        <time>2018-08-14T10:09:26.000Z</time>
      </trkpt>
      <trkpt lat="44.75366" lon="5.5">
        <ele>1073.8000488281</ele>
        <time>2018-08-14T10:09:34.000Z</time>
      </trkpt>
      <trkpt lat="44.7537" lon="5.50006">
        <ele>1073</ele>
        <time>2018-08-14T10:09:42.000Z</time>
      </trkpt>
      <trkpt lat="44.75382" lon="5.50017">
        <ele>1075</ele>
        <time>2018-08-14T10:10:23.000Z</time>
      </trkpt>
      <trkpt lat="44.75397" lon="5.50029">
        <ele>1078</ele>
        <time>2018-08-14T10:10:53.000Z</time>
      </trkpt>
      <trkpt lat="44.75407" lon="5.50038">
        <ele>1079.4000244141</ele>
        <time>2018-08-14T10:11:19.000Z</time>
      </trkpt>
      <trkpt lat="44.75434" lon="5.50066">
        <ele>1082.1999511719</ele>
        <time>2018-08-14T10:13:14.000Z</time>
      </trkpt>
      <trkpt lat="44.75454" lon="5.50076">
        <ele>1087</ele>
        <time>2018-08-14T10:14:31.000Z</time>
      </trkpt>
      <trkpt lat="44.75494" lon="5.5009">
        <ele>1093</ele>
        <time>2018-08-14T10:15:34.000Z</time>
      </trkpt>
      <trkpt lat="44.75505" lon="5.50081">
        <ele>1101</ele>
        <time>2018-08-14T10:16:38.000Z</time>
      </trkpt>
      <trkpt lat="44.75543" lon="5.50111">
        <ele>1101.4000244141</ele>
        <time>2018-08-14T10:17:47.000Z</time>
      </trkpt>
      <trkpt lat="44.75557" lon="5.50125">
        <ele>1099.1999511719</ele>
        <time>2018-08-14T10:18:11.000Z</time>
      </trkpt>
      <trkpt lat="44.75565" lon="5.50132">
        <ele>1098.4000244141</ele>
        <time>2018-08-14T10:18:25.000Z</time>
      </trkpt>
      <trkpt lat="44.75572" lon="5.50136">
        <ele>1099.5999755859</ele>
        <time>2018-08-14T10:18:33.000Z</time>
      </trkpt>
      <trkpt lat="44.75583" lon="5.50139">
        <ele>1102.4000244141</ele>
        <time>2018-08-14T10:18:44.000Z</time>
      </trkpt>
      <trkpt lat="44.75607" lon="5.50155">
        <ele>1107</ele>
        <time>2018-08-14T10:19:10.000Z</time>
      </trkpt>
      <trkpt lat="44.75647" lon="5.50181">
        <ele>1111.1999511719</ele>
        <time>2018-08-14T10:20:05.000Z</time>
      </trkpt>
      <trkpt lat="44.75656" lon="5.50191">
        <ele>1111</ele>
        <time>2018-08-14T10:20:19.000Z</time>
      </trkpt>
      <trkpt lat="44.7566" lon="5.50194">
        <ele>1111.1999511719</ele>
        <time>2018-08-14T10:20:23.000Z</time>
      </trkpt>
      <trkpt lat="44.75679" lon="5.5021">
        <ele>1111.4000244141</ele>
        <time>2018-08-14T10:21:28.000Z</time>
      </trkpt>
      <trkpt lat="44.75706" lon="5.50197">
        <ele>1121.1999511719</ele>
        <time>2018-08-14T10:22:18.000Z</time>
      </trkpt>
      <trkpt lat="44.75751" lon="5.50201">
        <ele>1124</ele>
        <time>2018-08-14T10:23:16.000Z</time>
      </trkpt>
      <trkpt lat="44.75758" lon="5.50213">
        <ele>1121.4000244141</ele>
        <time>2018-08-14T10:23:28.000Z</time>
      </trkpt>
      <trkpt lat="44.75763" lon="5.50212">
        <ele>1122</ele>
        <time>2018-08-14T10:23:31.000Z</time>
      </trkpt>
      <trkpt lat="44.75767" lon="5.50237">
        <ele>1114.4000244141</ele>
        <time>2018-08-14T10:24:12.000Z</time>
      </trkpt>
      <trkpt lat="44.75773" lon="5.50235">
        <ele>1115.8000488281</ele>
        <time>2018-08-14T10:24:28.000Z</time>
      </trkpt>
      <trkpt lat="44.75787" lon="5.50238">
        <ele>1116.1999511719</ele>
        <time>2018-08-14T10:24:45.000Z</time>
      </trkpt>
      <trkpt lat="44.75805" lon="5.50242">
        <ele>1116.4000244141</ele>
        <time>2018-08-14T10:25:01.000Z</time>
      </trkpt>
      <trkpt lat="44.7583" lon="5.50235">
        <ele>1121.8000488281</ele>
        <time>2018-08-14T10:25:28.000Z</time>
      </trkpt>
      <trkpt lat="44.75854" lon="5.50248">
        <ele>1120.4000244141</ele>
        <time>2018-08-14T10:25:56.000Z</time>
      </trkpt>
      <trkpt lat="44.75859" lon="5.5025">
        <ele>1120.5999755859</ele>
        <time>2018-08-14T10:26:00.000Z</time>
      </trkpt>
      <trkpt lat="44.75894" lon="5.50275">
        <ele>1115.8000488281</ele>
        <time>2018-08-14T10:26:38.000Z</time>
      </trkpt>
      <trkpt lat="44.75916" lon="5.50283">
        <ele>1115.4000244141</ele>
        <time>2018-08-14T10:27:00.000Z</time>
      </trkpt>
      <trkpt lat="44.75921" lon="5.50291">
        <ele>1113.4000244141</ele>
        <time>2018-08-14T10:27:09.000Z</time>
      </trkpt>
      <trkpt lat="44.75934" lon="5.50299">
        <ele>1112</ele>
        <time>2018-08-14T10:27:26.000Z</time>
      </trkpt>
      <trkpt lat="44.75946" lon="5.5031">
        <ele>1109.8000488281</ele>
        <time>2018-08-14T10:27:42.000Z</time>
      </trkpt>
      <trkpt lat="44.75962" lon="5.50338">
        <ele>1103.5999755859</ele>
        <time>2018-08-14T10:28:06.000Z</time>
      </trkpt>
      <trkpt lat="44.75978" lon="5.50357">
        <ele>1100.8000488281</ele>
        <time>2018-08-14T10:28:23.000Z</time>
      </trkpt>
      <trkpt lat="44.75988" lon="5.50368">
        <ele>1099.1999511719</ele>
        <time>2018-08-14T10:28:36.000Z</time>
      </trkpt>
      <trkpt lat="44.75991" lon="5.50369">
        <ele>1099.5999755859</ele>
        <time>2018-08-14T10:28:40.000Z</time>
      </trkpt>
      <trkpt lat="44.76007" lon="5.50394">
        <ele>1097.1999511719</ele>
        <time>2018-08-14T10:29:20.000Z</time>
      </trkpt>
      <trkpt lat="44.75995" lon="5.50396">
        <ele>1095</ele>
        <time>2018-08-14T10:29:31.000Z</time>
      </trkpt>
      <trkpt lat="44.75969" lon="5.5039">
        <ele>1090.4000244141</ele>
        <time>2018-08-14T10:29:57.000Z</time>
      </trkpt>
      <trkpt lat="44.75956" lon="5.50389">
        <ele>1087.8000488281</ele>
        <time>2018-08-14T10:30:13.000Z</time>
      </trkpt>
      <trkpt lat="44.75939" lon="5.50392">
        <ele>1086.1999511719</ele>
        <time>2018-08-14T10:30:34.000Z</time>
      </trkpt>
      <trkpt lat="44.75932" lon="5.5039">
        <ele>1086</ele>
        <time>2018-08-14T10:30:44.000Z</time>
      </trkpt>
      <trkpt lat="44.75903" lon="5.5039">
        <ele>1084.8000488281</ele>
        <time>2018-08-14T10:31:21.000Z</time>
      </trkpt>
      <trkpt lat="44.75899" lon="5.50392">
        <ele>1084.1999511719</ele>
        <time>2018-08-14T10:31:26.000Z</time>
      </trkpt>
      <trkpt lat="44.75891" lon="5.50396">
        <ele>1083.4000244141</ele>
        <time>2018-08-14T10:31:32.000Z</time>
      </trkpt>
      <trkpt lat="44.75888" lon="5.50398">
        <ele>1083</ele>
        <time>2018-08-14T10:31:35.000Z</time>
      </trkpt>
      <trkpt lat="44.75864" lon="5.50416">
        <ele>1075.4000244141</ele>
        <time>2018-08-14T10:32:00.000Z</time>
      </trkpt>
      <trkpt lat="44.7585" lon="5.50429">
        <ele>1070.1999511719</ele>
        <time>2018-08-14T10:32:26.000Z</time>
      </trkpt>
      <trkpt lat="44.7584" lon="5.50436">
        <ele>1067.4000244141</ele>
        <time>2018-08-14T10:32:38.000Z</time>
      </trkpt>
      <trkpt lat="44.7582" lon="5.50452">
        <ele>1061.5999755859</ele>
        <time>2018-08-14T10:33:00.000Z</time>
      </trkpt>
      <trkpt lat="44.75814" lon="5.5046">
        <ele>1059.1999511719</ele>
        <time>2018-08-14T10:33:08.000Z</time>
      </trkpt>
      <trkpt lat="44.75809" lon="5.50465">
        <ele>1057.8000488281</ele>
        <time>2018-08-14T10:33:14.000Z</time>
      </trkpt>
      <trkpt lat="44.75799" lon="5.50476">
        <ele>1054.5999755859</ele>
        <time>2018-08-14T10:33:26.000Z</time>
      </trkpt>
      <trkpt lat="44.75788" lon="5.50494">
        <ele>1048.1999511719</ele>
        <time>2018-08-14T10:33:47.000Z</time>
      </trkpt>
      <trkpt lat="44.75779" lon="5.50507">
        <ele>1044.1999511719</ele>
        <time>2018-08-14T10:34:01.000Z</time>
      </trkpt>
      <trkpt lat="44.75768" lon="5.50524">
        <ele>1039</ele>
        <time>2018-08-14T10:34:25.000Z</time>
      </trkpt>
      <trkpt lat="44.75765" lon="5.50531">
        <ele>1037.1999511719</ele>
        <time>2018-08-14T10:34:32.000Z</time>
      </trkpt>
      <trkpt lat="44.75759" lon="5.50544">
        <ele>1034.5999755859</ele>
        <time>2018-08-14T10:37:25.000Z</time>
      </trkpt>
      <trkpt lat="44.75738" lon="5.5058">
        <ele>1030.1999511719</ele>
        <time>2018-08-14T10:39:10.000Z</time>
      </trkpt>
      <trkpt lat="44.75712" lon="5.5063">
        <ele>1017.799987793</ele>
        <time>2018-08-14T10:40:25.000Z</time>
      </trkpt>
      <trkpt lat="44.75703" lon="5.5064">
        <ele>1017.200012207</ele>
        <time>2018-08-14T10:40:40.000Z</time>
      </trkpt>
      <trkpt lat="44.75681" lon="5.50652">
        <ele>1017.5999755859</ele>
        <time>2018-08-14T10:41:09.000Z</time>
      </trkpt>
      <trkpt lat="44.75667" lon="5.50658">
        <ele>1017.4000244141</ele>
        <time>2018-08-14T10:41:23.000Z</time>
      </trkpt>
      <trkpt lat="44.75624" lon="5.50677">
        <ele>1009.799987793</ele>
        <time>2018-08-14T10:42:03.000Z</time>
      </trkpt>
      <trkpt lat="44.756" lon="5.50692">
        <ele>1007.4000244141</ele>
        <time>2018-08-14T10:42:29.000Z</time>
      </trkpt>
      <trkpt lat="44.75584" lon="5.50702">
        <ele>1003.200012207</ele>
        <time>2018-08-14T10:42:48.000Z</time>
      </trkpt>
      <trkpt lat="44.75571" lon="5.50701">
        <ele>1000.200012207</ele>
        <time>2018-08-14T10:43:05.000Z</time>
      </trkpt>
      <trkpt lat="44.75565" lon="5.50699">
        <ele>999.20001220703</ele>
        <time>2018-08-14T10:43:11.000Z</time>
      </trkpt>
      <trkpt lat="44.75545" lon="5.50696">
        <ele>995</ele>
        <time>2018-08-14T10:43:34.000Z</time>
      </trkpt>
      <trkpt lat="44.75525" lon="5.50707">
        <ele>991.20001220703</ele>
        <time>2018-08-14T10:44:03.000Z</time>
      </trkpt>
      <trkpt lat="44.75499" lon="5.50721">
        <ele>986.20001220703</ele>
        <time>2018-08-14T10:44:35.000Z</time>
      </trkpt>
      <trkpt lat="44.75471" lon="5.50731">
        <ele>984.40002441406</ele>
        <time>2018-08-14T10:45:10.000Z</time>
      </trkpt>
      <trkpt lat="44.75468" lon="5.50734">
        <ele>984.59997558594</ele>
        <time>2018-08-14T10:45:13.000Z</time>
      </trkpt>
      <trkpt lat="44.7546" lon="5.50739">
        <ele>983.20001220703</ele>
        <time>2018-08-14T10:45:24.000Z</time>
      </trkpt>
      <trkpt lat="44.75453" lon="5.50738">
        <ele>981.20001220703</ele>
        <time>2018-08-14T10:45:32.000Z</time>
      </trkpt>
      <trkpt lat="44.75424" lon="5.50755">
        <ele>979.20001220703</ele>
        <time>2018-08-14T10:46:12.000Z</time>
      </trkpt>
      <trkpt lat="44.75419" lon="5.50759">
        <ele>979.20001220703</ele>
        <time>2018-08-14T10:46:17.000Z</time>
      </trkpt>
      <trkpt lat="44.75413" lon="5.50759">
        <ele>978</ele>
        <time>2018-08-14T10:46:27.000Z</time>
      </trkpt>
      <trkpt lat="44.75406" lon="5.50763">
        <ele>976.59997558594</ele>
        <time>2018-08-14T10:47:36.000Z</time>
      </trkpt>
      <trkpt lat="44.75397" lon="5.5076">
        <ele>974.20001220703</ele>
        <time>2018-08-14T10:47:48.000Z</time>
      </trkpt>
      <trkpt lat="44.75394" lon="5.50759">
        <ele>973.20001220703</ele>
        <time>2018-08-14T10:47:52.000Z</time>
      </trkpt>
      <trkpt lat="44.75383" lon="5.5076">
        <ele>970.79998779297</ele>
        <time>2018-08-14T10:48:03.000Z</time>
      </trkpt>
      <trkpt lat="44.7538" lon="5.5076">
        <ele>970</ele>
        <time>2018-08-14T10:48:07.000Z</time>
      </trkpt>
      <trkpt lat="44.75337" lon="5.50774">
        <ele>960.20001220703</ele>
        <time>2018-08-14T10:48:54.000Z</time>
      </trkpt>
      <trkpt lat="44.75321" lon="5.50776">
        <ele>955.79998779297</ele>
        <time>2018-08-14T10:49:10.000Z</time>
      </trkpt>
      <trkpt lat="44.75302" lon="5.50771">
        <ele>950.20001220703</ele>
        <time>2018-08-14T10:49:31.000Z</time>
      </trkpt>
      <trkpt lat="44.75281" lon="5.50773">
        <ele>944.59997558594</ele>
        <time>2018-08-14T10:49:55.000Z</time>
      </trkpt>
      <trkpt lat="44.75278" lon="5.50773">
        <ele>944</ele>
        <time>2018-08-14T10:49:59.000Z</time>
      </trkpt>
      <trkpt lat="44.75269" lon="5.50771">
        <ele>942.20001220703</ele>
        <time>2018-08-14T10:50:09.000Z</time>
      </trkpt>
      <trkpt lat="44.7526" lon="5.50773">
        <ele>940.40002441406</ele>
        <time>2018-08-14T10:50:18.000Z</time>
      </trkpt>
      <trkpt lat="44.75258" lon="5.50773">
        <ele>940</ele>
        <time>2018-08-14T10:50:20.000Z</time>
      </trkpt>
      <trkpt lat="44.75242" lon="5.50774">
        <ele>937.20001220703</ele>
        <time>2018-08-14T10:50:37.000Z</time>
      </trkpt>
      <trkpt lat="44.7523" lon="5.50771">
        <ele>935</ele>
        <time>2018-08-14T10:50:46.000Z</time>
      </trkpt>
      <trkpt lat="44.75215" lon="5.5077">
        <ele>932</ele>
        <time>2018-08-14T10:50:59.000Z</time>
      </trkpt>
      <trkpt lat="44.75196" lon="5.50757">
        <ele>927.40002441406</ele>
        <time>2018-08-14T10:51:20.000Z</time>
      </trkpt>
      <trkpt lat="44.75157" lon="5.50728">
        <ele>915.79998779297</ele>
        <time>2018-08-14T10:51:59.000Z</time>
      </trkpt>
      <trkpt lat="44.75138" lon="5.50708">
        <ele>911</ele>
        <time>2018-08-14T10:52:25.000Z</time>
      </trkpt>
      <trkpt lat="44.75108" lon="5.50689">
        <ele>904.20001220703</ele>
        <time>2018-08-14T10:53:24.000Z</time>
      </trkpt>
      <trkpt lat="44.75103" lon="5.50692">
        <ele>902.79998779297</ele>
        <time>2018-08-14T10:53:31.000Z</time>
      </trkpt>
      <trkpt lat="44.75096" lon="5.5071">
        <ele>899.40002441406</ele>
        <time>2018-08-14T10:53:52.000Z</time>
      </trkpt>
      <trkpt lat="44.75076" lon="5.50741">
        <ele>895.40002441406</ele>
        <time>2018-08-14T10:54:38.000Z</time>
      </trkpt>
      <trkpt lat="44.75055" lon="5.50771">
        <ele>891</ele>
        <time>2018-08-14T10:55:22.000Z</time>
      </trkpt>
      <trkpt lat="44.75027" lon="5.50781">
        <ele>883.40002441406</ele>
        <time>2018-08-14T10:56:04.000Z</time>
      </trkpt>
      <trkpt lat="44.75008" lon="5.50789">
        <ele>878</ele>
        <time>2018-08-14T10:56:30.000Z</time>
      </trkpt>
      <trkpt lat="44.74999" lon="5.50795">
        <ele>874.59997558594</ele>
        <time>2018-08-14T10:56:45.000Z</time>
      </trkpt>
      <trkpt lat="44.74996" lon="5.50798">
        <ele>873.59997558594</ele>
        <time>2018-08-14T10:56:48.000Z</time>
      </trkpt>
      <trkpt lat="44.74987" lon="5.50809">
        <ele>872.20001220703</ele>
        <time>2018-08-14T10:57:05.000Z</time>
      </trkpt>
      <trkpt lat="44.74985" lon="5.50814">
        <ele>872.59997558594</ele>
        <time>2018-08-14T10:57:13.000Z</time>
      </trkpt>
      <trkpt lat="44.74959" lon="5.50831">
        <ele>866.79998779297</ele>
        <time>2018-08-14T10:57:55.000Z</time>
      </trkpt>
      <trkpt lat="44.74947" lon="5.50836">
        <ele>864</ele>
        <time>2018-08-14T10:58:12.000Z</time>
      </trkpt>
      <trkpt lat="44.74945" lon="5.50812">
        <ele>859.59997558594</ele>
        <time>2018-08-14T10:58:32.000Z</time>
      </trkpt>
      <trkpt lat="44.74941" lon="5.50782">
        <ele>856.40002441406</ele>
        <time>2018-08-14T10:58:54.000Z</time>
      </trkpt>
      <trkpt lat="44.74936" lon="5.50779">
        <ele>855</ele>
        <time>2018-08-14T10:59:00.000Z</time>
      </trkpt>
      <trkpt lat="44.74933" lon="5.50782">
        <ele>853.79998779297</ele>
        <time>2018-08-14T10:59:05.000Z</time>
      </trkpt>
      <trkpt lat="44.74928" lon="5.50785">
        <ele>852.59997558594</ele>
        <time>2018-08-14T10:59:11.000Z</time>
      </trkpt>
      <trkpt lat="44.74911" lon="5.50807">
        <ele>849.79998779297</ele>
        <time>2018-08-14T10:59:34.000Z</time>
      </trkpt>
      <trkpt lat="44.74905" lon="5.50808">
        <ele>848.40002441406</ele>
        <time>2018-08-14T10:59:40.000Z</time>
      </trkpt>
      <trkpt lat="44.74891" lon="5.50805">
        <ele>844.20001220703</ele>
        <time>2018-08-14T10:59:55.000Z</time>
      </trkpt>
      <trkpt lat="44.74886" lon="5.50803">
        <ele>842.40002441406</ele>
        <time>2018-08-14T11:00:01.000Z</time>
      </trkpt>
      <trkpt lat="44.74843" lon="5.50786">
        <ele>830</ele>
        <time>2018-08-14T11:01:02.000Z</time>
      </trkpt>
      <trkpt lat="44.74843" lon="5.50786">
        <ele>829.79998779297</ele>
        <time>2018-08-14T11:01:03.000Z</time>
      </trkpt>
      <trkpt lat="44.74838" lon="5.50788">
        <ele>828.59997558594</ele>
        <time>2018-08-14T11:01:09.000Z</time>
      </trkpt>
      <trkpt lat="44.74825" lon="5.50789">
        <ele>825.40002441406</ele>
        <time>2018-08-14T11:01:26.000Z</time>
      </trkpt>
      <trkpt lat="44.74814" lon="5.50788">
        <ele>822.59997558594</ele>
        <time>2018-08-14T11:01:37.000Z</time>
      </trkpt>
      <trkpt lat="44.74808" lon="5.50788">
        <ele>821.20001220703</ele>
        <time>2018-08-14T11:01:44.000Z</time>
      </trkpt>
      <trkpt lat="44.748" lon="5.50784">
        <ele>819</ele>
        <time>2018-08-14T11:01:55.000Z</time>
      </trkpt>
      <trkpt lat="44.74796" lon="5.50787">
        <ele>818</ele>
        <time>2018-08-14T11:02:02.000Z</time>
      </trkpt>
      <trkpt lat="44.74783" lon="5.50793">
        <ele>815</ele>
        <time>2018-08-14T11:02:23.000Z</time>
      </trkpt>
      <trkpt lat="44.74742" lon="5.50769">
        <ele>803.79998779297</ele>
        <time>2018-08-14T11:03:12.000Z</time>
      </trkpt>
      <trkpt lat="44.74716" lon="5.50722">
        <ele>788.20001220703</ele>
        <time>2018-08-14T11:03:55.000Z</time>
      </trkpt>
      <trkpt lat="44.74714" lon="5.50711">
        <ele>786.59997558594</ele>
        <time>2018-08-14T11:04:04.000Z</time>
      </trkpt>
      <trkpt lat="44.74714" lon="5.50708">
        <ele>786.40002441406</ele>
        <time>2018-08-14T11:04:06.000Z</time>
      </trkpt>
      <trkpt lat="44.74714" lon="5.50673">
        <ele>783.40002441406</ele>
        <time>2018-08-14T11:04:27.000Z</time>
      </trkpt>
      <trkpt lat="44.74711" lon="5.50671">
        <ele>782.40002441406</ele>
        <time>2018-08-14T11:04:51.000Z</time>
      </trkpt>
      <trkpt lat="44.74685" lon="5.50645">
        <ele>773.79998779297</ele>
        <time>2018-08-14T11:05:21.000Z</time>
      </trkpt>
      <trkpt lat="44.7467" lon="5.50601">
        <ele>767.40002441406</ele>
        <time>2018-08-14T11:05:51.000Z</time>
      </trkpt>
      <trkpt lat="44.74668" lon="5.50538">
        <ele>768.20001220703</ele>
        <time>2018-08-14T11:06:25.000Z</time>
      </trkpt>
      <trkpt lat="44.74694" lon="5.50489">
        <ele>775.40002441406</ele>
        <time>2018-08-14T11:07:02.000Z</time>
      </trkpt>
      <trkpt lat="44.74695" lon="5.50479">
        <ele>775.40002441406</ele>
        <time>2018-08-14T11:07:09.000Z</time>
      </trkpt>
      <trkpt lat="44.74666" lon="5.50467">
        <ele>769.59997558594</ele>
        <time>2018-08-14T11:07:41.000Z</time>
      </trkpt>
      <trkpt lat="44.74636" lon="5.50427">
        <ele>764.79998779297</ele>
        <time>2018-08-14T11:08:31.000Z</time>
      </trkpt>
      <trkpt lat="44.74634" lon="5.50427">
        <ele>764.40002441406</ele>
        <time>2018-08-14T11:08:33.000Z</time>
      </trkpt>
      <trkpt lat="44.74617" lon="5.5044">
        <ele>761.79998779297</ele>
        <time>2018-08-14T11:09:16.000Z</time>
      </trkpt>
    </trkseg>
  </trk>
</gpx>